Latest Coastal Weather Observations for Moorabbin Airport

IDV60701

Issued at 6:41 pm EDT Tuesday 28 February 2017 (issued every 10 minutes, with the page automatically refreshed every 10 minutes)

About coastal observations | Map of coastal stations | Coastal observations for VIC | Marine services | Other Formats
Station Details ID: 086077 Name: MOORABBIN AIRPORT Lat: -37.98 Lon: 145.10 Height: 12.1 m
Data from the previous 72 hours. | See also: Recent months at Moorabbin Airport
Date/Time
EDT
Temp
°C
Wind Pressure Rain since
9am
mm
Weather Cloud Vis
km
Sea
Height
m
Swell
Dir  Spd
kts
Gust
kts
hPa Trend Height
m
Period
s
Dir
28/06:30pm 31.3 SSE 10 15 1019.0 - 0.0 - - 10 - - - -
28/06:00pm 31.4 S 11 14 1019.0 - 0.0 - - 10 - - - -
28/05:30pm 31.7 S 9 12 1019.0 - 0.0 - - 10 - - - -
28/05:00pm 31.8 SSW 10 14 1019.1 - 0.0 - - 10 - - - -
28/04:30pm 31.4 SSW 10 12 1019.3 - 0.0 - - 10 - - - -
28/04:00pm 31.7 SSW 11 13 1019.5 - 0.0 - - 10 - - - -
28/03:30pm 31.9 SSW 9 11 1019.8 - 0.0 - - 10 - - - -
28/03:00pm 32.3 SW 8 11 1020.0 - 0.0 - - 10 - - - -
28/02:30pm 32.3 SW 8 10 1020.2 - 0.0 - - 10 - - - -
28/02:00pm 31.6 SSW 7 9 1020.3 - 0.0 - - 10 - - - -
28/01:30pm 32.0 NNE 5 10 1020.5 - 0.0 - - 10 - - - -
28/01:00pm 31.5 NNW 5 10 1020.7 - 0.0 - - 10 - - - -
28/12:30pm 30.7 NNW 8 15 1021.1 - 0.0 - - 10 - - - -
28/12:00pm 29.9 NNW 10 14 1021.2 - 0.0 - - 10 - - - -
28/11:30am 30.0 N 11 15 1021.4 - 0.0 - - 10 - - - -
28/11:00am 28.3 N 12 17 1021.5 - 0.0 - - 10 - - - -
28/10:30am 27.3 N 12 18 1021.6 - 0.0 - - 10 - - - -
28/10:00am 26.5 N 12 20 1021.6 - 0.0 - - 10 - - - -
28/09:30am 24.6 N 3 5 1021.7 - 0.0 - - 10 - - - -
28/09:00am 22.3 N 4 5 1021.7 - 0.0 - - 10 - - - -
28/08:30am 20.5 N 4 5 1021.6 - 0.0 - - 10 - - - -
28/08:00am 17.5 CALM 0 3 1021.6 - 0.0 - - 10 - - - -
28/07:30am 16.3 CALM 0 0 1021.4 - 0.0 - - 10 - - - -
28/07:00am 15.4 CALM 0 0 1020.9 - 0.0 - - 10 - - - -
28/06:30am 16.5 N 4 5 1020.5 - 0.0 - - 10 - - - -
28/06:00am 15.5 CALM 0 0 1020.4 - 0.0 - - 10 - - - -
28/05:30am 15.9 CALM 0 0 1020.1 - 0.0 - - 10 - - - -
28/05:00am 15.6 CALM 0 0 1020.0 - 0.0 - - 10 - - - -
28/04:30am 16.5 CALM 0 0 1020.0 - 0.0 - - 10 - - - -
28/04:00am 16.2 CALM 0 0 1020.1 - 0.0 - - 10 - - - -
28/03:30am 17.1 CALM 0 0 1020.2 - 0.0 - - 10 - - - -
28/03:00am 17.2 CALM 0 0 1020.4 - 0.0 - - 10 - - - -
28/02:30am 17.8 CALM 0 0 1020.4 - 0.0 - - 10 - - - -
28/02:00am 18.0 CALM 0 0 1020.6 - 0.0 - - 10 - - - -
28/01:30am 18.9 CALM 0 0 1020.7 - 0.0 - - 10 - - - -
28/01:00am 19.8 CALM 0 0 1020.6 - 0.0 - - 10 - - - -
28/12:30am 19.7 ESE 6 6 1020.5 - 0.0 - - 10 - - - -
28/12:00am 20.6 ESE 7 8 1020.6 - 0.0 - - 10 - - - -
 
Date/Time
EDT
Temp
°C
Wind Pressure Rain since
9am
mm
Weather Cloud Vis
km
Sea
Height
m
Swell
Dir  Spd
kts
Gust
kts
hPa Trend Height
m
Period
s
Dir
27/11:30pm 21.1 ESE 6 7 1020.7 - 0.0 - - 10 - - - -
27/11:00pm 21.9 ESE 6 7 1020.8 - 0.0 - - 10 - - - -
27/10:30pm 22.9 ESE 7 10 1020.7 - 0.0 - - 10 - - - -
27/10:00pm 24.1 ESE 9 11 1020.7 - 0.0 - - 10 - - - -
27/09:30pm 25.0 ESE 10 14 1020.7 - 0.0 - - 10 - - - -
27/09:00pm 25.0 SE 8 9 1020.5 - 0.0 - - 10 - - - -
27/08:30pm 25.7 SE 8 9 1020.3 - 0.0 - - 10 - - - -
27/08:00pm 26.8 SE 9 12 1020.1 - 0.0 - - 10 - - - -
27/07:30pm 28.7 SE 12 15 1019.9 - 0.0 - - 10 - - - -
27/07:00pm 29.6 SSE 13 17 1019.6 - 0.0 - - 10 - - - -
27/06:30pm 30.6 S 10 13 1019.5 - 0.0 - - 10 - - - -
27/06:00pm 31.2 S 8 11 1019.4 - 0.0 - - 10 - - - -
27/05:30pm 30.7 S 10 13 1019.5 - 0.0 - - 10 - - - -
27/05:00pm 30.7 S 10 13 1019.5 - 0.0 - - 10 - - - -
27/04:30pm 30.8 S 11 14 1019.6 - 0.0 - - 10 - - - -
27/04:00pm 31.0 SSW 10 13 1019.9 - 0.0 - - 10 - - - -
27/03:30pm 31.2 SSW 10 12 1020.2 - 0.0 - - 10 - - - -
27/03:00pm 31.9 NNE 5 9 1020.5 - 0.0 - - 10 - - - -
27/02:30pm 31.1 NNE 7 10 1020.8 - 0.0 - - 10 - - - -
27/02:00pm 30.8 N 9 14 1021.2 - 0.0 - - 10 - - - -
27/01:30pm 30.1 N 9 15 1021.4 - 0.0 - - 10 - - - -
27/01:00pm 30.1 NNW 10 15 1021.6 - 0.0 - - 10 - - - -
27/12:30pm 29.2 N 11 16 1021.8 - 0.0 - - 10 - - - -
27/12:00pm 28.8 N 8 13 1022.0 - 0.0 - - 10 - - - -
27/11:30am 27.9 NNW 12 17 1022.2 - 0.0 - - 10 - - - -
27/11:00am 26.7 N 11 17 1022.5 - 0.0 - - 10 - - - -
27/10:30am 25.5 N 11 14 1022.8 - 0.0 - - 10 - - - -
27/10:00am 24.3 N 9 12 1022.7 - 0.0 - - 10 - - - -
27/09:30am 22.9 N 9 15 1022.8 - 0.0 - - 10 - - - -
27/09:00am 20.6 N 4 6 1022.9 - 0.0 - - 10 - - - -
27/08:30am 18.3 NE 2 4 1022.8 - 0.0 - - 10 - - - -
27/08:00am 16.7 NNE 2 4 1022.6 - 0.0 - - 10 - - - -
27/07:30am 14.2 CALM 0 0 1022.5 - 0.0 - - 10 - - - -
27/07:00am 13.7 CALM 0 3 1022.0 - 0.0 - - 10 - - - -
27/06:30am 14.4 N 3 5 1021.5 - 0.0 - - 10 - - - -
27/06:00am 13.9 CALM 0 0 1021.0 - 0.0 - - 10 - - - -
27/05:30am 14.0 CALM 0 0 1020.7 - 0.0 - - 10 - - - -
27/05:00am 14.0 CALM 0 0 1020.5 - 0.0 - - 10 - - - -
27/04:30am 14.5 CALM 0 0 1020.4 - 0.0 - - 10 - - - -
27/04:00am 14.9 CALM 0 2 1020.5 - 0.0 - - 10 - - - -
27/03:30am 15.6 E 4 5 1020.5 - 0.0 - - 10 - - - -
27/03:00am 15.4 ESE 5 5 1020.5 - 0.0 - - 10 - - - -
27/02:30am 15.7 ESE 3 4 1020.5 - 0.0 - - 10 - - - -
27/02:00am 16.2 ESE 5 6 1020.6 - 0.0 - - 10 - - - -
27/01:30am 16.5 ESE 6 8 1020.5 - 0.0 - - 10 - - - -
27/01:00am 17.0 ESE 6 8 1020.3 - 0.0 - - 10 - - - -
27/12:30am 17.5 ESE 6 9 1020.4 - 0.0 - - 10 - - - -
27/12:00am 18.0 ESE 10 14 1020.2 - 0.0 - - 10 - - - -
 
Date/Time
EDT
Temp
°C
Wind Pressure Rain since
9am
mm
Weather Cloud Vis
km
Sea
Height
m
Swell
Dir  Spd
kts
Gust
kts
hPa Trend Height
m
Period
s
Dir
26/11:30pm 18.5 ESE 11 15 1020.2 - 0.0 - - 10 - - - -
26/11:00pm 19.1 ESE 12 16 1020.3 - 0.0 - - 10 - - - -
26/10:30pm 19.8 ESE 13 18 1020.3 - 0.0 - - 10 - - - -
26/10:00pm 20.1 ESE 11 15 1020.3 - 0.0 - - 10 - - - -
26/09:30pm 20.8 ESE 13 16 1020.1 - 0.0 - - 10 - - - -
26/09:00pm 21.6 ESE 14 19 1019.7 - 0.0 - - 10 - - - -
26/08:30pm 22.8 ESE 16 21 1019.4 - 0.0 - - 10 - - - -
26/08:00pm 23.9 ESE 15 19 1019.1 - 0.0 - - 10 - - - -
26/07:30pm 25.2 ESE 17 22 1018.9 - 0.0 - - 10 - - - -
26/07:00pm 26.3 ESE 17 23 1018.6 - 0.0 - - 10 - - - -
26/06:30pm 27.4 SE 16 21 1018.4 - 0.0 - - 10 - - - -
26/06:00pm 28.5 ESE 13 17 1018.3 - 0.0 - - 10 - - - -
26/05:30pm 28.5 ESE 11 16 1018.2 - 0.0 - - 10 - - - -
26/05:00pm 28.0 S 11 14 1018.3 - 0.0 - - 10 - - - -
26/04:30pm 26.9 S 11 15 1018.6 - 0.0 - - 10 - - - -
26/04:00pm 26.6 SSW 11 14 1018.9 - 0.0 - - 10 - - - -
26/03:30pm 26.3 SSW 10 13 1019.3 - 0.0 - - 10 - - - -
26/03:00pm 26.4 SW 9 11 1019.6 - 0.0 - - 10 - - - -
26/02:30pm 27.5 SW 4 12 1019.8 - 0.0 - - 10 - - - -
26/02:00pm 27.2 ESE 5 9 1020.1 - 0.0 - - 10 - - - -
26/01:30pm 25.8 SE 6 11 1020.5 - 0.0 - - 10 - - - -
26/01:00pm 25.0 SSE 5 11 1020.8 - 0.0 - - 10 - - - -
26/12:30pm 24.4 ESE 7 11 1021.2 - 0.0 - - 10 - - - -
26/12:00pm 23.4 ESE 4 9 1021.4 - 0.0 - Mostly clear 10 - - - -
26/11:30am 21.9 SE 5 8 1021.7 - 0.0 - - 10 - - - -
26/11:00am 21.4 NE 3 6 1021.8 - 0.0 - - 10 - - - -
26/10:30am 20.4 ENE 2 5 1021.9 - 0.0 - - 10 - - - -
26/10:00am 19.1 ENE 3 5 1022.0 - 0.0 - - 10 - - - -
26/09:30am 18.7 CALM 0 0 1021.9 - 0.0 - - 10 - - - -
26/09:00am 17.1 CALM 0 4 1021.9 - 0.0 - - 10 - - - -
26/08:30am 16.1 CALM 0 0 1021.5 - 0.0 - - 10 - - - -
26/08:00am 14.0 CALM 0 0 1021.3 - 0.0 - - 10 - - - -
26/07:30am 13.3 CALM 0 0 1021.1 - 0.0 - - 10 - - - -
26/07:00am 12.7 CALM 0 0 1020.9 - 0.0 - - 10 - - - -
26/06:30am 12.9 CALM 0 2 1020.6 - 0.0 - - 10 - - - -
26/06:00am 13.6 NNE 3 4 1020.1 - 0.0 - - 10 - - - -
26/05:30am 13.4 SE 4 5 1019.8 - 0.0 - - 10 - - - -
26/05:00am 13.4 ESE 4 5 1019.7 - 0.0 - - 10 - - - -
26/04:30am 15.3 E 7 10 1019.5 - 0.0 - - 10 - - - -
26/04:00am 15.8 E 11 15 1019.5 - 0.0 - - 10 - - - -
26/03:30am 16.1 ESE 13 18 1019.9 - 0.0 - - 10 - - - -
26/03:00am 16.2 ESE 12 18 1020.3 - 0.0 - - 10 - - - -
26/02:30am 16.5 ESE 12 17 1020.3 - 0.0 - - 10 - - - -
26/02:00am 16.6 SE 13 17 1020.6 - 0.0 - - 10 - - - -
26/01:30am 16.8 SE 15 22 1020.4 - 0.0 - Partly cloudy 10 - - - -
26/01:00am 17.2 SE 15 20 1020.8 - 0.0 - Cloudy 10 - - - -
26/12:30am 17.1 SE 13 19 1021.2 - 0.0 - Cloudy 10 - - - -
26/12:00am 16.8 SE 13 17 1021.4 - 0.0 - Mostly clear 10 - - - -
 
Date/Time
EDT
Temp
°C
Wind Pressure Rain since
9am
mm
Weather Cloud Vis
km
Sea
Height
m
Swell
Dir  Spd
kts
Gust
kts
hPa Trend Height
m
Period
s
Dir
25/11:30pm 16.8 SE 13 17 1021.5 - 0.0 - - 10 - - - -
25/11:00pm 16.7 SE 12 17 1021.6 - 0.0 - - 10 - - - -
25/10:30pm 17.2 SE 12 17 1021.7 - 0.0 - - 10 - - - -
25/10:00pm 17.5 SE 13 18 1021.7 - 0.0 - - 10 - - - -
25/09:30pm 17.6 SSE 11 14 1021.5 - 0.0 - - 10 - - - -
25/09:00pm 17.6 S 10 13 1021.2 - 0.0 - - 10 - - - -
25/08:30pm 17.9 S 9 12 1021.0 - 0.0 - - 10 - - - -
25/08:00pm 18.1 SSW 8 11 1021.1 - 0.0 - Partly cloudy 10 - - - -
25/07:30pm 18.2 SSW 11 15 1021.3 - 0.0 - - 10 - - - -
25/07:00pm 18.2 SSW 13 16 1021.6 - 0.0 - - 10 - - - -

Other Formats:

Comma delimited format used in spreadsheet applications
http://www.bom.gov.au/fwo/IDV60701/IDV60701.94870.axf

JavaScript Object Notation format (JSON) in row-major order
http://www.bom.gov.au/fwo/IDV60701/IDV60701.94870.json